createdAt,value
2023-01-20T00:01:33.251Z,182.43
2023-01-20T00:06:38.763Z,167.23
2023-01-20T00:11:44.344Z,133.02
2023-01-20T00:16:49.819Z,164.85
2023-01-20T00:21:55.278Z,168.60
2023-01-20T00:27:00.960Z,169.35
2023-01-20T00:32:06.732Z,164.23
2023-01-20T00:37:12.121Z,149.93
2023-01-20T00:42:17.670Z,176.93
2023-01-20T00:47:23.155Z,143.88
2023-01-20T00:52:31.976Z,113.03
2023-01-20T00:57:38.005Z,143.18
2023-01-20T01:02:43.662Z,152.50
2023-01-20T01:07:49.137Z,158.37
2023-01-20T01:12:54.673Z,164.40
2023-01-20T01:18:01.403Z,150.77
2023-01-20T01:23:06.807Z,124.32
2023-01-20T01:28:12.357Z,165.02
2023-01-20T01:33:17.696Z,158.60
2023-01-20T01:38:23.443Z,158.10
2023-01-20T01:43:33.318Z,130.03
2023-01-20T01:48:41.827Z,143.25
2023-01-20T01:53:49.617Z,134.48
2023-01-20T01:58:56.253Z,135.30
2023-01-20T02:04:10.325Z,132.68
2023-01-20T02:09:16.279Z,118.82
2023-01-20T02:14:24.460Z,132.10
2023-01-20T02:19:36.275Z,127.53
2023-01-20T02:25:00.060Z,118.13
2023-01-20T02:30:08.821Z,118.10
2023-01-20T02:35:32.130Z,66.45
2023-01-20T02:40:55.791Z,128.93
2023-01-20T02:46:19.392Z,105.28
2023-01-20T02:51:34.567Z,88.82
2023-01-20T02:56:41.465Z,111.68
2023-01-20T03:01:50.621Z,115.47
2023-01-20T03:06:57.700Z,120.40
2023-01-20T03:17:07.839Z,90.70
2023-01-20T03:22:13.494Z,80.55
2023-01-20T03:27:19.283Z,112.73
2023-01-20T03:32:28.272Z,112.43
2023-01-20T03:37:34.102Z,120.93
2023-01-20T03:42:46.956Z,124.77
2023-01-20T03:48:10.928Z,106.07
2023-01-20T03:53:19.661Z,65.75
2023-01-20T03:58:28.971Z,112.38
2023-01-20T04:03:35.453Z,100.55
2023-01-20T04:08:44.340Z,113.78
2023-01-20T04:13:49.891Z,103.82
2023-01-20T04:18:56.162Z,103.20
2023-01-20T04:24:07.003Z,117.40
2023-01-20T04:29:13.284Z,126.95
2023-01-20T04:34:19.179Z,107.18
2023-01-20T04:39:25.009Z,127.60
2023-01-20T04:44:30.507Z,129.70
2023-01-20T04:49:37.130Z,141.37
2023-01-20T04:59:47.912Z,97.22
2023-01-20T05:04:53.718Z,109.73
2023-01-20T05:09:59.476Z,131.20
2023-01-20T05:15:04.943Z,125.47
2023-01-20T05:20:10.996Z,125.22
2023-01-20T05:25:17.317Z,116.40
2023-01-20T05:30:23.085Z,116.10
2023-01-20T05:35:28.849Z,122.93
2023-01-20T05:40:34.396Z,131.83
2023-01-20T05:45:40.133Z,128.48
2023-01-20T05:50:45.825Z,159.67
2023-01-20T05:55:51.730Z,115.10
2023-01-20T06:00:57.462Z,160.77
2023-01-20T06:06:06.138Z,125.57
2023-01-20T06:11:11.800Z,71.30
2023-01-20T06:16:19.198Z,158.77
2023-01-20T06:21:25.116Z,123.43
2023-01-20T06:26:30.806Z,136.73
2023-01-20T06:31:37.102Z,113.63
2023-01-20T06:36:42.763Z,122.60
2023-01-20T06:41:48.522Z,136.50
2023-01-20T06:46:54.172Z,86.13
2023-01-20T06:51:59.892Z,136.13
2023-01-20T06:57:05.810Z,100.83
2023-01-20T07:02:12.439Z,110.43
2023-01-20T07:07:18.261Z,133.80
2023-01-20T07:12:24.031Z,91.10
2023-01-20T07:17:29.546Z,145.13
2023-01-20T07:22:35.008Z,79.93
2023-01-20T07:27:41.025Z,79.10
2023-01-20T07:32:47.054Z,81.50
2023-01-20T07:37:52.988Z,100.00
2023-01-20T07:42:58.923Z,72.20
2023-01-20T07:48:05.377Z,106.03
2023-01-20T07:58:16.750Z,91.50
2023-01-20T08:03:22.582Z,85.67
2023-01-20T08:08:29.507Z,86.20
2023-01-20T08:13:35.871Z,97.88
2023-01-20T08:18:42.259Z,86.60
2023-01-20T08:23:48.145Z,103.90
2023-01-20T08:28:54.828Z,83.67
2023-01-20T08:39:07.287Z,94.88
2023-01-20T08:44:13.501Z,98.03
2023-01-20T08:49:19.951Z,94.07
2023-01-20T08:54:27.379Z,83.45
2023-01-20T08:59:33.523Z,119.07
2023-01-20T09:04:39.719Z,104.72
2023-01-20T09:09:45.567Z,103.75
2023-01-20T09:14:51.266Z,112.53
2023-01-20T09:19:56.545Z,84.57
2023-01-20T09:25:02.816Z,100.07
2023-01-20T09:30:08.848Z,128.48
2023-01-20T09:35:15.152Z,95.15
2023-01-20T09:46:04.793Z,133.75
2023-01-20T09:51:32.072Z,122.30
2023-01-20T09:56:43.108Z,102.22
2023-01-20T10:01:50.985Z,103.97
2023-01-20T10:07:02.922Z,104.78
2023-01-20T10:12:08.702Z,97.93
2023-01-20T10:17:19.264Z,103.95
2023-01-20T10:22:43.235Z,117.07
2023-01-20T10:27:55.459Z,119.20
2023-01-20T10:33:08.629Z,129.27
2023-01-20T10:38:22.967Z,147.05
2023-01-20T10:43:28.572Z,147.27
2023-01-20T10:48:40.600Z,164.47
2023-01-20T10:53:56.752Z,156.75
2023-01-20T10:59:05.513Z,151.67
2023-01-20T11:04:19.993Z,150.07
2023-01-20T11:09:41.283Z,133.93
2023-01-20T11:14:48.313Z,144.60
2023-01-20T11:19:58.238Z,132.52
2023-01-20T11:25:05.617Z,145.70
2023-01-20T11:30:23.374Z,113.90
2023-01-20T11:35:28.956Z,144.45
2023-01-20T11:40:35.313Z,123.68
2023-01-20T11:45:41.023Z,147.65
2023-01-20T11:50:51.750Z,170.20
2023-01-20T11:56:10.956Z,160.88
2023-01-20T12:01:23.499Z,145.70
2023-01-20T12:06:31.391Z,153.23
2023-01-20T12:11:43.492Z,170.65
2023-01-20T12:16:56.240Z,172.95
2023-01-20T12:22:04.266Z,145.55
2023-01-20T12:27:18.310Z,182.43
2023-01-20T12:32:24.026Z,154.85
2023-01-20T12:37:29.813Z,176.17
2023-01-20T12:42:53.677Z,169.60
2023-01-20T12:48:02.244Z,145.95
2023-01-20T12:53:26.444Z,158.82
2023-01-20T12:58:43.000Z,162.13
2023-01-20T13:03:52.003Z,183.20
2023-01-20T13:09:16.047Z,161.85
2023-01-20T13:14:28.416Z,170.88
2023-01-20T13:19:39.937Z,171.65
2023-01-20T13:24:48.343Z,163.57
2023-01-20T13:29:54.544Z,148.52
2023-01-20T13:35:00.488Z,155.63
2023-01-20T13:40:06.869Z,176.90
2023-01-20T13:45:15.833Z,161.65
2023-01-20T13:50:30.456Z,178.85
2023-01-20T13:55:51.397Z,175.05
2023-01-20T14:00:59.080Z,192.82
2023-01-20T14:06:08.367Z,163.07
2023-01-20T14:11:18.337Z,156.57
2023-01-20T14:16:31.309Z,136.32
2023-01-20T14:21:43.173Z,160.00
2023-01-20T14:26:48.951Z,153.63
2023-01-20T14:31:54.834Z,153.67
2023-01-20T14:37:02.113Z,144.10
2023-01-20T14:42:08.369Z,152.55
2023-01-20T14:47:14.157Z,151.80
2023-01-20T14:52:23.593Z,186.30
2023-01-20T14:57:33.227Z,207.05
2023-01-20T15:02:43.779Z,165.35
2023-01-20T15:07:49.572Z,175.63
2023-01-20T15:12:57.678Z,190.47
2023-01-20T15:18:12.616Z,177.68
2023-01-20T15:23:39.129Z,159.38
2023-01-20T15:28:45.916Z,177.90
2023-01-20T15:33:51.816Z,203.93
2023-01-20T15:38:57.796Z,182.75
2023-01-20T15:44:03.108Z,200.70
2023-01-20T15:49:12.866Z,184.93
2023-01-20T15:54:18.515Z,175.38
2023-01-20T15:59:24.119Z,211.98
2023-01-20T16:04:30.272Z,184.50
2023-01-20T16:09:38.680Z,186.23
2023-01-20T16:14:44.218Z,198.27
2023-01-20T16:19:50.144Z,194.45
2023-01-20T16:24:55.746Z,186.83
2023-01-20T16:30:01.205Z,211.53
2023-01-20T16:35:06.718Z,180.27
2023-01-20T16:40:20.401Z,178.57
2023-01-20T16:45:27.340Z,181.02
2023-01-20T16:50:32.667Z,175.20
2023-01-20T16:55:38.397Z,179.25
2023-01-20T17:00:44.795Z,178.30
2023-01-20T17:05:50.478Z,172.18
2023-01-20T17:10:55.613Z,189.27
2023-01-20T17:16:00.977Z,182.15
2023-01-20T17:21:07.625Z,168.13
2023-01-20T17:26:13.309Z,160.32
2023-01-20T17:31:19.011Z,158.37
2023-01-20T17:36:24.644Z,168.07
2023-01-20T17:41:30.042Z,197.73
2023-01-20T17:46:36.331Z,173.68
2023-01-20T17:51:42.145Z,178.20
2023-01-20T17:56:49.268Z,190.37
2023-01-20T18:01:55.842Z,193.00
2023-01-20T18:07:01.552Z,181.05
2023-01-20T18:12:06.885Z,180.53
2023-01-20T18:17:12.213Z,191.63
2023-01-20T18:22:17.820Z,185.32
2023-01-20T18:27:24.083Z,175.95
2023-01-20T18:32:29.757Z,199.00
2023-01-20T18:37:35.198Z,205.63
2023-01-20T18:42:40.937Z,149.63
2023-01-20T18:47:46.697Z,168.50
2023-01-20T18:52:52.145Z,172.43
2023-01-20T18:57:57.592Z,180.52
2023-01-20T19:03:03.436Z,228.05
2023-01-20T19:08:09.607Z,193.87
2023-01-20T19:13:15.665Z,178.07
2023-01-20T19:18:21.189Z,230.15
2023-01-20T19:23:26.681Z,223.68
2023-01-20T19:28:32.538Z,184.25
2023-01-20T19:33:38.748Z,206.33
2023-01-20T19:38:44.754Z,205.77
2023-01-20T19:43:50.314Z,192.83
2023-01-20T19:48:56.470Z,207.05
2023-01-20T19:54:03.061Z,196.52
2023-01-20T19:59:09.656Z,188.65
2023-01-20T20:04:15.404Z,211.55
2023-01-20T20:09:27.439Z,199.47
2023-01-20T20:14:32.837Z,182.10
2023-01-20T20:19:38.144Z,225.05
2023-01-20T20:24:43.971Z,227.20
2023-01-20T20:29:49.402Z,229.53
2023-01-20T20:34:54.992Z,230.13
2023-01-20T20:40:00.673Z,226.88
2023-01-20T20:45:06.460Z,212.13
2023-01-20T20:50:12.396Z,227.87
2023-01-20T20:55:17.692Z,217.03
2023-01-20T21:00:24.926Z,229.05
2023-01-20T21:05:30.638Z,183.82
2023-01-20T21:10:35.997Z,181.60
2023-01-20T21:15:41.297Z,177.38
2023-01-20T21:20:46.669Z,191.60
2023-01-20T21:25:52.058Z,191.05
2023-01-20T21:30:58.051Z,188.45
2023-01-20T21:36:03.994Z,186.63
2023-01-20T21:41:12.305Z,173.37
2023-01-20T21:46:18.876Z,191.85
2023-01-20T21:56:47.886Z,174.90
2023-01-20T22:01:53.891Z,170.47
2023-01-20T22:06:59.376Z,180.13
2023-01-20T22:12:05.220Z,182.63
2023-01-20T22:17:11.795Z,187.50
2023-01-20T22:22:17.741Z,176.45
2023-01-20T22:27:23.760Z,171.60
2023-01-20T22:32:30.225Z,211.90
2023-01-20T22:37:35.853Z,217.52
2023-01-20T22:42:41.390Z,185.87
2023-01-20T22:47:47.046Z,184.73
2023-01-20T22:52:52.377Z,182.20
2023-01-20T22:57:58.061Z,195.93
2023-01-20T23:03:03.527Z,196.88
2023-01-20T23:08:09.004Z,189.17
2023-01-20T23:13:14.357Z,179.52
2023-01-20T23:18:20.123Z,199.63
2023-01-20T23:23:26.200Z,193.03
2023-01-20T23:28:31.805Z,182.90
2023-01-20T23:33:37.619Z,189.10
2023-01-20T23:38:43.090Z,178.02
2023-01-20T23:43:48.766Z,196.25
2023-01-20T23:48:54.407Z,171.43
2023-01-20T23:53:59.970Z,183.70
2023-01-20T23:59:06.041Z,185.90
